createdAt,value
2018-03-30T00:00:59.512Z,18.08
2018-03-30T00:03:26.991Z,17.23
2018-03-30T00:05:54.454Z,24.37
2018-03-30T00:08:21.913Z,20.85
2018-03-30T00:10:54.300Z,19.87
2018-03-30T00:13:21.858Z,27.87
2018-03-30T00:15:49.470Z,25.70
2018-03-30T00:18:16.985Z,19.85
2018-03-30T00:20:44.494Z,24.05
2018-03-30T00:23:11.949Z,26.62
2018-03-30T00:25:39.445Z,23.70
2018-03-30T00:28:06.900Z,27.75
2018-03-30T00:30:34.473Z,30.02
2018-03-30T00:33:01.945Z,29.73
2018-03-30T00:35:30.173Z,37.42
2018-03-30T00:37:57.635Z,32.20
2018-03-30T00:40:25.093Z,29.52
2018-03-30T00:42:52.565Z,34.17
2018-03-30T00:45:20.038Z,35.83
2018-03-30T00:47:48.256Z,31.83
2018-03-30T00:50:15.753Z,32.58
2018-03-30T00:52:43.303Z,33.00
2018-03-30T00:55:10.768Z,34.45
2018-03-30T00:57:38.326Z,36.17
2018-03-30T01:00:05.795Z,35.58
2018-03-30T01:02:33.258Z,39.47
2018-03-30T01:05:01.578Z,43.00
2018-03-30T01:07:29.070Z,41.30
2018-03-30T01:09:56.541Z,44.80
2018-03-30T01:12:23.997Z,38.20
2018-03-30T01:14:51.461Z,40.28
2018-03-30T01:17:19.691Z,39.63
2018-03-30T01:19:47.156Z,35.95
2018-03-30T01:22:14.612Z,39.88
2018-03-30T01:24:42.189Z,42.85
2018-03-30T01:27:09.644Z,41.88
2018-03-30T01:29:37.118Z,35.95
2018-03-30T01:32:05.344Z,46.10
2018-03-30T01:34:32.815Z,40.40
2018-03-30T01:37:00.271Z,43.63
2018-03-30T01:39:27.733Z,39.63
2018-03-30T01:41:55.192Z,35.90
2018-03-30T01:44:22.648Z,37.08
2018-03-30T01:46:50.109Z,39.95
2018-03-30T01:49:17.572Z,50.28
2018-03-30T01:51:45.037Z,39.90
2018-03-30T01:54:12.500Z,41.45
2018-03-30T01:56:40.727Z,38.42
2018-03-30T01:59:08.188Z,41.65
2018-03-30T02:01:35.674Z,44.63
2018-03-30T02:04:03.150Z,47.22
2018-03-30T02:06:31.371Z,43.50
2018-03-30T02:08:58.859Z,40.00
2018-03-30T02:11:26.336Z,46.08
2018-03-30T02:13:54.564Z,41.65
2018-03-30T02:16:22.029Z,39.15
2018-03-30T02:18:49.482Z,41.67
2018-03-30T02:21:16.954Z,42.08
2018-03-30T02:23:44.418Z,47.50
2018-03-30T02:26:12.698Z,45.88
2018-03-30T02:28:40.254Z,44.22
2018-03-30T02:31:07.724Z,43.72
2018-03-30T02:33:35.991Z,46.58
2018-03-30T02:36:03.460Z,45.90
2018-03-30T02:38:31.694Z,43.10
2018-03-30T02:40:59.170Z,44.88
2018-03-30T02:43:26.625Z,50.38
2018-03-30T02:45:54.096Z,42.38
2018-03-30T02:48:21.649Z,44.13
2018-03-30T02:50:49.110Z,45.80
2018-03-30T02:53:16.620Z,46.50
2018-03-30T02:55:44.080Z,41.92
2018-03-30T02:58:11.572Z,46.45
2018-03-30T03:00:39.045Z,47.42
2018-03-30T03:03:06.510Z,42.42
2018-03-30T03:05:34.768Z,44.80
2018-03-30T03:08:02.236Z,39.80
2018-03-30T03:10:29.698Z,41.42
2018-03-30T03:12:57.937Z,44.85
2018-03-30T03:15:25.509Z,44.08
2018-03-30T03:17:53.068Z,47.88
2018-03-30T03:20:20.527Z,42.75
2018-03-30T03:22:48.082Z,41.67
2018-03-30T03:25:15.549Z,47.03
2018-03-30T03:27:43.826Z,41.30
2018-03-30T03:30:11.309Z,48.33
2018-03-30T03:32:38.772Z,36.15
2018-03-30T03:35:06.289Z,38.42
2018-03-30T03:37:33.748Z,40.92
2018-03-30T03:40:01.204Z,40.20
2018-03-30T03:42:28.684Z,40.38
2018-03-30T03:44:56.990Z,36.33
2018-03-30T03:47:24.462Z,35.20
2018-03-30T03:49:51.945Z,44.95
2018-03-30T03:52:19.420Z,38.72
2018-03-30T03:54:46.872Z,38.13
2018-03-30T03:57:14.342Z,41.50
2018-03-30T03:59:42.557Z,39.97
2018-03-30T04:02:10.020Z,33.63
2018-03-30T04:04:37.471Z,36.85
2018-03-30T04:07:04.968Z,41.22
2018-03-30T04:09:32.426Z,38.80
2018-03-30T04:11:59.980Z,38.40
2018-03-30T04:14:27.441Z,36.50
2018-03-30T04:16:54.905Z,41.72
2018-03-30T04:19:22.356Z,39.63
2018-03-30T04:21:49.816Z,37.13
2018-03-30T04:24:17.292Z,39.00
2018-03-30T04:26:45.521Z,36.30
2018-03-30T04:29:12.983Z,38.33
2018-03-30T04:31:40.454Z,39.15
2018-03-30T04:34:08.010Z,38.92
2018-03-30T04:36:35.480Z,39.22
2018-03-30T04:39:03.707Z,38.67
2018-03-30T04:41:31.173Z,34.63
2018-03-30T04:43:58.637Z,36.15
2018-03-30T04:46:26.118Z,34.50
2018-03-30T04:48:55.080Z,35.40
2018-03-30T04:51:22.562Z,36.17
2018-03-30T04:53:50.112Z,39.05
2018-03-30T04:56:17.592Z,34.97
2018-03-30T04:58:45.807Z,42.13
2018-03-30T05:01:13.302Z,36.00
2018-03-30T05:03:40.759Z,37.53
2018-03-30T05:06:08.277Z,35.70
2018-03-30T05:08:35.740Z,36.13
2018-03-30T05:11:03.236Z,32.25
2018-03-30T05:13:30.788Z,36.50
2018-03-30T05:15:58.347Z,34.97
2018-03-30T05:18:25.918Z,33.25
2018-03-30T05:20:53.381Z,35.00
2018-03-30T05:23:20.839Z,29.63
2018-03-30T05:25:49.073Z,29.73
2018-03-30T05:28:16.541Z,32.90
2018-03-30T05:30:44.001Z,31.60
2018-03-30T05:33:11.469Z,41.53
2018-03-30T05:35:38.942Z,33.58
2018-03-30T05:38:07.187Z,33.80
2018-03-30T05:40:34.650Z,32.88
2018-03-30T05:43:02.103Z,33.50
2018-03-30T05:45:29.628Z,32.75
2018-03-30T05:47:57.125Z,37.33
2018-03-30T05:50:24.588Z,33.72
2018-03-30T05:52:52.054Z,33.28
2018-03-30T05:55:19.600Z,29.42
2018-03-30T05:57:47.063Z,32.25
2018-03-30T06:00:14.519Z,38.05
2018-03-30T06:02:41.984Z,36.28
2018-03-30T06:05:09.441Z,32.38
2018-03-30T06:07:36.910Z,32.67
2018-03-30T06:10:05.166Z,32.50
2018-03-30T06:12:32.638Z,32.55
2018-03-30T06:15:00.889Z,26.10
2018-03-30T06:17:29.941Z,23.08
2018-03-30T06:19:57.416Z,24.50
2018-03-30T06:22:24.872Z,22.48
2018-03-30T06:24:52.342Z,22.25
2018-03-30T06:27:19.913Z,22.40
2018-03-30T06:29:47.377Z,17.58
2018-03-30T06:32:14.917Z,27.10
2018-03-30T06:34:42.356Z,24.77
2018-03-30T06:37:09.845Z,22.17
2018-03-30T06:39:37.401Z,21.15
2018-03-30T06:42:04.865Z,19.25
2018-03-30T06:44:32.430Z,22.80
2018-03-30T06:46:59.888Z,20.45
2018-03-30T06:49:28.165Z,17.25
2018-03-30T06:51:56.436Z,17.95
2018-03-30T06:54:23.901Z,20.17
2018-03-30T06:56:52.124Z,20.55
2018-03-30T06:59:19.594Z,18.20
2018-03-30T07:01:47.065Z,18.10
2018-03-30T07:04:14.558Z,18.37
2018-03-30T07:06:42.867Z,23.48
2018-03-30T07:09:10.338Z,18.77
2018-03-30T07:11:37.798Z,17.30
2018-03-30T07:14:05.315Z,21.10
2018-03-30T07:16:32.834Z,19.85
2018-03-30T07:19:00.393Z,16.73
2018-03-30T07:21:27.906Z,18.77
2018-03-30T07:23:55.410Z,23.20
2018-03-30T07:26:22.881Z,18.73
2018-03-30T07:28:50.346Z,16.77
2018-03-30T07:31:18.589Z,23.85
2018-03-30T07:33:46.060Z,20.92
2018-03-30T07:36:13.612Z,27.75
2018-03-30T07:38:41.081Z,24.83
2018-03-30T07:41:08.625Z,22.08
2018-03-30T07:43:36.876Z,21.20
2018-03-30T07:46:04.356Z,20.45
2018-03-30T07:48:31.880Z,18.75
2018-03-30T07:50:59.338Z,22.30
2018-03-30T07:53:26.834Z,18.62
2018-03-30T07:55:54.398Z,24.90
2018-03-30T07:58:21.852Z,20.20
2018-03-30T08:00:49.315Z,19.62
2018-03-30T08:03:17.544Z,20.37
2018-03-30T08:05:45.000Z,20.80
2018-03-30T08:08:12.478Z,19.67
2018-03-30T08:10:40.049Z,20.95
2018-03-30T08:13:07.613Z,24.95
2018-03-30T08:15:35.168Z,21.70
2018-03-30T08:18:02.630Z,23.48
2018-03-30T08:20:30.918Z,22.58
2018-03-30T08:22:59.158Z,21.87
2018-03-30T08:25:26.616Z,21.73
2018-03-30T08:27:54.080Z,22.90
2018-03-30T08:30:21.545Z,22.50
2018-03-30T08:32:49.116Z,24.10
2018-03-30T08:35:17.389Z,25.42
2018-03-30T08:37:44.845Z,24.08
2018-03-30T08:40:12.401Z,27.58
2018-03-30T08:42:39.862Z,28.75
2018-03-30T08:45:07.329Z,28.33
2018-03-30T08:47:35.543Z,26.02
2018-03-30T08:50:03.049Z,27.37
2018-03-30T08:52:30.513Z,30.40
2018-03-30T08:54:58.783Z,24.98
2018-03-30T08:57:27.014Z,29.58
2018-03-30T08:59:54.468Z,28.85
2018-03-30T09:02:21.944Z,30.02
2018-03-30T09:04:49.411Z,28.48
2018-03-30T09:07:16.883Z,28.08
2018-03-30T09:09:44.349Z,31.85
2018-03-30T09:12:12.577Z,24.83
2018-03-30T09:14:40.057Z,30.52
2018-03-30T09:17:07.576Z,27.62
2018-03-30T09:19:35.100Z,28.60
2018-03-30T09:22:03.335Z,24.42
2018-03-30T09:24:30.799Z,30.33
2018-03-30T09:26:58.274Z,30.08
2018-03-30T09:29:25.734Z,29.63
2018-03-30T09:31:53.198Z,36.78
2018-03-30T09:34:21.452Z,31.00
2018-03-30T09:36:48.913Z,33.38
2018-03-30T09:39:16.381Z,31.08
2018-03-30T09:41:44.604Z,26.33
2018-03-30T09:44:12.070Z,29.60
2018-03-30T09:46:39.538Z,31.87
2018-03-30T09:49:06.995Z,26.75
2018-03-30T09:51:34.588Z,32.25
2018-03-30T09:54:02.830Z,28.83
2018-03-30T09:56:30.296Z,33.38
2018-03-30T09:58:57.749Z,31.12
2018-03-30T10:01:25.211Z,32.05
2018-03-30T10:03:52.693Z,34.95
2018-03-30T10:06:20.952Z,24.63
2018-03-30T10:08:48.425Z,25.33
2018-03-30T10:11:16.669Z,26.98
2018-03-30T10:13:44.147Z,29.15
2018-03-30T10:16:12.405Z,25.83
2018-03-30T10:18:39.971Z,32.45
2018-03-30T10:21:08.352Z,30.45
2018-03-30T10:23:35.912Z,26.80
2018-03-30T10:26:03.384Z,28.73
2018-03-30T10:28:31.642Z,26.47
2018-03-30T10:30:59.112Z,35.60
2018-03-30T10:33:26.576Z,24.23
2018-03-30T10:35:54.809Z,24.67
2018-03-30T10:38:22.290Z,31.87
2018-03-30T10:40:49.758Z,27.43
2018-03-30T10:43:17.997Z,26.10
2018-03-30T10:45:45.482Z,27.33
2018-03-30T10:48:12.950Z,23.07
2018-03-30T10:50:41.264Z,34.83
2018-03-30T10:53:08.755Z,28.53
2018-03-30T10:55:36.330Z,26.97
2018-03-30T10:58:03.844Z,28.57
2018-03-30T11:00:31.333Z,24.83
2018-03-30T11:02:58.798Z,30.40
2018-03-30T11:05:26.362Z,26.93
2018-03-30T11:07:53.926Z,26.60
2018-03-30T11:10:21.430Z,29.27
2018-03-30T11:12:48.892Z,27.40
2018-03-30T11:15:16.357Z,25.40
2018-03-30T11:17:43.820Z,25.50
2018-03-30T11:20:11.397Z,26.63
2018-03-30T11:22:39.636Z,31.97
2018-03-30T11:25:07.108Z,25.27
2018-03-30T11:27:34.560Z,22.93
2018-03-30T11:30:02.082Z,30.40
2018-03-30T11:32:30.317Z,26.37
2018-03-30T11:34:57.792Z,25.53
2018-03-30T11:37:25.269Z,25.90
2018-03-30T11:39:53.501Z,23.77
2018-03-30T11:42:20.970Z,29.60
2018-03-30T11:44:48.528Z,29.80
2018-03-30T11:47:16.763Z,24.90
2018-03-30T11:49:44.218Z,25.93
2018-03-30T11:52:11.693Z,24.43
2018-03-30T11:54:39.183Z,25.67
2018-03-30T11:57:06.658Z,24.13
2018-03-30T11:59:34.890Z,22.53
2018-03-30T12:02:02.358Z,24.33
2018-03-30T12:04:30.600Z,23.30
2018-03-30T12:06:58.074Z,23.37
2018-03-30T12:09:25.536Z,23.40
2018-03-30T12:11:53.001Z,23.33
2018-03-30T12:14:20.461Z,24.53
2018-03-30T12:16:48.696Z,22.03
2018-03-30T12:19:16.188Z,22.23
2018-03-30T12:21:43.746Z,19.50
2018-03-30T12:24:11.209Z,24.37
2018-03-30T12:26:38.774Z,21.30
2018-03-30T12:29:06.228Z,25.63
2018-03-30T12:31:35.212Z,21.97
2018-03-30T12:34:02.785Z,21.97
2018-03-30T12:36:30.252Z,19.20
2018-03-30T12:38:58.475Z,20.03
2018-03-30T12:41:25.940Z,17.50
2018-03-30T12:43:53.409Z,19.07
2018-03-30T12:46:20.933Z,20.17
2018-03-30T12:48:48.392Z,21.57
2018-03-30T12:51:15.866Z,18.53
2018-03-30T12:53:43.348Z,19.33
2018-03-30T12:56:10.829Z,22.33
2018-03-30T12:58:38.311Z,19.80
2018-03-30T13:01:05.784Z,19.83
2018-03-30T13:03:33.274Z,23.00
2018-03-30T13:06:00.753Z,21.77
2018-03-30T13:08:28.983Z,18.13
2018-03-30T13:10:56.476Z,22.17
2018-03-30T13:13:24.708Z,24.73
2018-03-30T13:15:52.170Z,16.43
2018-03-30T13:18:19.670Z,17.07
2018-03-30T13:20:47.896Z,16.53
2018-03-30T13:23:15.445Z,18.57
2018-03-30T13:25:42.924Z,18.83
2018-03-30T13:28:10.501Z,16.87
2018-03-30T13:30:37.973Z,20.47
2018-03-30T13:33:06.222Z,15.50
2018-03-30T13:35:33.680Z,20.63
2018-03-30T13:38:01.140Z,15.47
2018-03-30T13:40:29.381Z,16.83
2018-03-30T13:42:56.988Z,18.23
2018-03-30T13:45:24.453Z,14.60
2018-03-30T13:47:52.817Z,20.57
2018-03-30T13:50:23.869Z,17.67
2018-03-30T13:53:06.786Z,18.03
2018-03-30T13:55:37.815Z,17.07
2018-03-30T13:58:13.987Z,15.93
2018-03-30T14:00:47.781Z,16.00
2018-03-30T14:06:41.061Z,16.50
2018-03-30T14:09:08.624Z,15.63
2018-03-30T14:14:34.665Z,14.97
2018-03-30T14:17:04.587Z,15.43
2018-03-30T14:19:34.521Z,15.37
2018-03-30T14:24:59.002Z,16.40
2018-03-30T14:27:30.216Z,15.27
2018-03-30T14:30:11.013Z,16.33
2018-03-30T14:32:38.491Z,15.10
2018-03-30T14:35:15.349Z,13.97
2018-03-30T14:37:59.605Z,15.27
2018-03-30T14:40:31.671Z,14.50
2018-03-30T14:42:59.950Z,17.77
2018-03-30T14:45:33.870Z,15.60
2018-03-30T14:48:11.992Z,15.40
2018-03-30T14:50:42.087Z,12.80
2018-03-30T14:53:17.010Z,15.07
2018-03-30T14:55:45.505Z,15.33
2018-03-30T14:58:21.291Z,13.10
2018-03-30T15:00:52.433Z,13.70
2018-03-30T15:03:30.796Z,14.60
2018-03-30T15:08:55.506Z,17.23
2018-03-30T15:11:40.468Z,17.80
2018-03-30T15:14:13.516Z,18.67
2018-03-30T15:16:50.528Z,18.33
2018-03-30T15:19:22.508Z,16.17
2018-03-30T15:21:50.636Z,16.63
2018-03-30T15:24:20.803Z,16.53
2018-03-30T15:26:52.858Z,17.33
2018-03-30T15:29:25.859Z,15.37
2018-03-30T15:34:53.344Z,16.87
2018-03-30T15:37:22.404Z,16.20
2018-03-30T15:39:53.358Z,17.77
2018-03-30T15:42:22.220Z,15.77
2018-03-30T15:44:50.616Z,15.67
2018-03-30T15:47:18.979Z,15.77
2018-03-30T15:49:50.128Z,17.07
2018-03-30T15:52:22.045Z,18.13
2018-03-30T15:54:49.507Z,18.63
2018-03-30T15:57:17.009Z,15.43
2018-03-30T15:59:44.578Z,16.20
2018-03-30T16:02:12.043Z,17.33
2018-03-30T16:04:39.523Z,24.60
2018-03-30T16:07:07.753Z,17.43
2018-03-30T16:09:41.980Z,15.83
2018-03-30T16:12:09.446Z,17.33
2018-03-30T16:14:37.708Z,19.37
2018-03-30T16:17:05.170Z,18.63
2018-03-30T16:19:32.141Z,21.90
2018-03-30T16:21:59.876Z,18.27
2018-03-30T16:24:27.642Z,17.87
2018-03-30T16:26:54.609Z,17.00
2018-03-30T16:29:22.445Z,21.20
2018-03-30T16:31:49.503Z,19.80
2018-03-30T16:34:16.504Z,16.87
2018-03-30T16:36:43.484Z,15.47
2018-03-30T16:39:11.960Z,18.70
2018-03-30T16:41:39.012Z,15.67
2018-03-30T16:44:06.060Z,17.13
2018-03-30T16:46:33.108Z,17.10
2018-03-30T16:49:00.103Z,15.70
2018-03-30T16:51:27.071Z,15.47
2018-03-30T16:53:54.154Z,16.80
2018-03-30T16:56:21.116Z,20.23
2018-03-30T16:58:48.956Z,19.53
2018-03-30T17:01:15.945Z,22.80
2018-03-30T17:03:42.921Z,19.00
2018-03-30T17:06:09.887Z,15.07
2018-03-30T17:08:36.864Z,18.95
2018-03-30T17:11:03.884Z,17.42
2018-03-30T17:13:30.887Z,14.48
2018-03-30T17:15:57.931Z,15.77
2018-03-30T17:18:24.896Z,19.83
2018-03-30T17:20:51.969Z,19.30
2018-03-30T17:23:18.948Z,13.45
2018-03-30T17:25:45.921Z,13.38
2018-03-30T17:28:13.000Z,15.45
2018-03-30T17:30:39.968Z,12.93
2018-03-30T17:33:07.714Z,12.00
2018-03-30T17:35:34.684Z,14.75
2018-03-30T17:38:02.435Z,13.57
2018-03-30T17:40:30.195Z,14.25
2018-03-30T17:42:57.168Z,14.27
2018-03-30T17:45:24.138Z,16.40
2018-03-30T17:47:51.121Z,11.65
2018-03-30T17:50:18.178Z,12.27
2018-03-30T17:52:45.217Z,19.15
2018-03-30T17:55:12.192Z,14.35
2018-03-30T17:57:39.168Z,12.73
2018-03-30T18:00:06.179Z,16.62
2018-03-30T18:02:34.029Z,11.35
2018-03-30T18:05:00.999Z,11.80
2018-03-30T18:07:28.008Z,10.63
2018-03-30T18:09:54.980Z,15.95
2018-03-30T18:12:22.720Z,13.48
2018-03-30T18:14:49.693Z,23.12
2018-03-30T18:17:17.424Z,11.18
2018-03-30T18:19:44.422Z,13.35
2018-03-30T18:22:11.387Z,11.77
2018-03-30T18:24:38.454Z,13.62
2018-03-30T18:27:05.430Z,14.20
2018-03-30T18:29:33.161Z,13.57
2018-03-30T18:32:00.128Z,10.63
2018-03-30T18:34:27.117Z,14.20
2018-03-30T18:36:54.090Z,11.43
2018-03-30T18:39:21.066Z,12.10
2018-03-30T18:41:48.036Z,10.55
2018-03-30T18:44:15.042Z,11.60
2018-03-30T18:46:42.098Z,14.48
2018-03-30T18:49:09.076Z,12.02
2018-03-30T18:51:36.041Z,16.70
2018-03-30T18:54:03.024Z,11.07
2018-03-30T18:56:30.082Z,12.37
2018-03-30T18:58:57.076Z,12.50
2018-03-30T19:01:24.127Z,12.30
2018-03-30T19:03:51.167Z,12.15
2018-03-30T19:06:18.125Z,16.27
2018-03-30T19:08:45.097Z,13.35
2018-03-30T19:11:12.139Z,15.80
2018-03-30T19:13:39.256Z,13.68
2018-03-30T19:16:06.203Z,16.25
2018-03-30T19:18:33.178Z,17.87
2018-03-30T19:21:00.144Z,20.40
2018-03-30T19:23:27.105Z,14.82
2018-03-30T19:25:54.946Z,15.70
2018-03-30T19:28:21.909Z,16.67
2018-03-30T19:30:49.648Z,14.52
2018-03-30T19:33:16.706Z,14.57
2018-03-30T19:35:43.795Z,16.55
2018-03-30T19:38:10.705Z,15.50
2018-03-30T19:40:38.449Z,23.58
2018-03-30T19:43:05.410Z,14.15
2018-03-30T19:45:32.375Z,17.75
2018-03-30T19:47:59.449Z,17.90
2018-03-30T19:50:26.420Z,16.08
2018-03-30T19:52:53.390Z,18.80
2018-03-30T19:55:20.424Z,20.95
2018-03-30T19:57:47.398Z,23.92
2018-03-30T20:00:15.233Z,19.10
2018-03-30T20:02:42.210Z,20.12
2018-03-30T20:05:10.045Z,19.48
2018-03-30T20:07:37.018Z,18.52
2018-03-30T20:10:04.780Z,16.92
2018-03-30T20:12:32.517Z,16.75
2018-03-30T20:14:59.516Z,19.05
2018-03-30T20:17:26.511Z,21.70
2018-03-30T20:19:53.497Z,20.25
2018-03-30T20:22:20.456Z,16.45
2018-03-30T20:24:47.453Z,15.45
2018-03-30T20:27:15.193Z,19.92
2018-03-30T20:29:42.159Z,14.23
2018-03-30T20:32:09.207Z,20.20
2018-03-30T20:34:37.021Z,13.77
2018-03-30T20:37:04.013Z,16.95
2018-03-30T20:39:30.979Z,15.55
2018-03-30T20:41:58.824Z,16.45
2018-03-30T20:44:25.861Z,17.67
2018-03-30T20:46:52.820Z,14.87
2018-03-30T20:49:21.395Z,15.98
2018-03-30T20:51:48.352Z,16.02
2018-03-30T20:54:16.099Z,15.27
2018-03-30T20:56:43.149Z,14.63
2018-03-30T20:59:10.562Z,14.60
2018-03-30T21:01:37.523Z,13.73
2018-03-30T21:04:04.502Z,14.55
2018-03-30T21:06:31.540Z,19.40
2018-03-30T21:08:58.537Z,18.52
2018-03-30T21:11:25.499Z,16.77
2018-03-30T21:13:52.477Z,15.82
2018-03-30T21:16:19.562Z,17.83
2018-03-30T21:18:47.310Z,21.98
2018-03-30T21:21:15.156Z,18.90
2018-03-30T21:23:42.205Z,15.10
2018-03-30T21:26:09.244Z,15.88
2018-03-30T21:28:36.229Z,17.12
2018-03-30T21:31:03.200Z,18.73
2018-03-30T21:33:30.292Z,23.00
2018-03-30T21:35:57.332Z,21.33
2018-03-30T21:38:24.379Z,17.92
2018-03-30T21:40:51.382Z,17.77
2018-03-30T21:43:18.429Z,19.00
2018-03-30T21:45:45.415Z,16.37
2018-03-30T21:48:12.392Z,22.80
2018-03-30T21:50:40.226Z,16.87
2018-03-30T21:53:07.277Z,17.23
2018-03-30T21:55:34.381Z,17.35
2018-03-30T21:58:01.340Z,22.20
2018-03-30T22:00:28.416Z,19.92
2018-03-30T22:02:55.373Z,19.45
2018-03-30T22:05:22.348Z,19.02
2018-03-30T22:07:49.320Z,22.20
2018-03-30T22:10:16.392Z,19.42
2018-03-30T22:12:43.373Z,23.33
2018-03-30T22:15:11.164Z,18.48
2018-03-30T22:17:38.148Z,21.55
2018-03-30T22:20:05.125Z,20.00
2018-03-30T22:22:32.867Z,20.92
2018-03-30T22:25:00.646Z,20.58
2018-03-30T22:27:28.373Z,17.98
2018-03-30T22:29:55.417Z,23.05
2018-03-30T22:32:22.472Z,22.25
2018-03-30T22:34:49.538Z,21.35
2018-03-30T22:37:16.511Z,27.23
2018-03-30T22:39:43.480Z,22.33
2018-03-30T22:42:10.469Z,20.37
2018-03-30T22:44:37.521Z,18.30
2018-03-30T22:47:06.001Z,18.15
2018-03-30T22:49:32.982Z,23.00
2018-03-30T22:51:59.956Z,18.52
2018-03-30T22:54:26.914Z,21.67
2018-03-30T22:56:53.885Z,21.45
2018-03-30T22:59:20.935Z,19.27
2018-03-30T23:01:47.902Z,21.12
2018-03-30T23:04:14.869Z,23.20
2018-03-30T23:06:41.865Z,18.67
2018-03-30T23:09:08.899Z,22.33
2018-03-30T23:11:35.872Z,23.40
2018-03-30T23:14:03.713Z,23.30
2018-03-30T23:16:30.769Z,22.00
2018-03-30T23:18:57.746Z,21.55
2018-03-30T23:21:24.754Z,20.90
2018-03-30T23:23:51.794Z,21.20
2018-03-30T23:26:18.852Z,21.10
2018-03-30T23:28:45.846Z,27.58
2018-03-30T23:31:12.812Z,22.23
2018-03-30T23:33:39.780Z,23.30
2018-03-30T23:36:06.756Z,24.98
2018-03-30T23:38:34.490Z,21.60
2018-03-30T23:41:01.491Z,19.35
2018-03-30T23:43:28.455Z,21.48
2018-03-30T23:45:55.530Z,19.48
2018-03-30T23:48:22.500Z,26.35
2018-03-30T23:50:50.353Z,20.73
2018-03-30T23:53:17.323Z,18.42
2018-03-30T23:55:44.337Z,17.23
2018-03-30T23:58:11.435Z,23.58
